sensor_id;sensor_type;location;lat;lon;timestamp;temperature;humidity
29431;DHT22;16404;49.902;10.074;2023-01-15T00:00:26;12.90;73.70
29431;DHT22;16404;49.902;10.074;2023-01-15T00:03:11;13.00;73.80
29431;DHT22;16404;49.902;10.074;2023-01-15T00:06:00;13.00;73.60
29431;DHT22;16404;49.902;10.074;2023-01-15T00:08:45;13.00;73.70
29431;DHT22;16404;49.902;10.074;2023-01-15T00:11:29;13.00;73.60
29431;DHT22;16404;49.902;10.074;2023-01-15T00:14:14;13.00;73.50
29431;DHT22;16404;49.902;10.074;2023-01-15T00:16:58;12.90;73.50
29431;DHT22;16404;49.902;10.074;2023-01-15T00:19:43;13.10;73.60
29431;DHT22;16404;49.902;10.074;2023-01-15T00:22:28;13.10;73.30
29431;DHT22;16404;49.902;10.074;2023-01-15T00:25:13;13.10;73.20
29431;DHT22;16404;49.902;10.074;2023-01-15T00:28:16;13.10;73.30
29431;DHT22;16404;49.902;10.074;2023-01-15T00:31:03;13.10;73.40
29431;DHT22;16404;49.902;10.074;2023-01-15T00:33:48;13.00;73.50
29431;DHT22;16404;49.902;10.074;2023-01-15T00:36:34;13.00;73.70
29431;DHT22;16404;49.902;10.074;2023-01-15T00:39:20;13.10;73.70
29431;DHT22;16404;49.902;10.074;2023-01-15T00:42:08;13.10;73.70
29431;DHT22;16404;49.902;10.074;2023-01-15T00:44:54;13.00;74.00
29431;DHT22;16404;49.902;10.074;2023-01-15T00:47:40;13.00;74.00
29431;DHT22;16404;49.902;10.074;2023-01-15T00:50:25;13.00;74.10
29431;DHT22;16404;49.902;10.074;2023-01-15T00:53:10;13.10;74.10
29431;DHT22;16404;49.902;10.074;2023-01-15T00:55:55;13.10;74.00
29431;DHT22;16404;49.902;10.074;2023-01-15T00:58:40;13.20;74.00
29431;DHT22;16404;49.902;10.074;2023-01-15T01:01:24;13.20;74.00
29431;DHT22;16404;49.902;10.074;2023-01-15T01:04:10;13.10;74.00
29431;DHT22;16404;49.902;10.074;2023-01-15T01:06:54;13.10;74.40
29431;DHT22;16404;49.902;10.074;2023-01-15T01:09:39;13.10;74.40
29431;DHT22;16404;49.902;10.074;2023-01-15T01:12:24;13.10;74.40
29431;DHT22;16404;49.902;10.074;2023-01-15T01:15:09;13.10;74.60
29431;DHT22;16404;49.902;10.074;2023-01-15T01:17:54;13.10;74.60
29431;DHT22;16404;49.902;10.074;2023-01-15T01:20:39;13.20;74.30
29431;DHT22;16404;49.902;10.074;2023-01-15T01:23:23;13.20;74.30
29431;DHT22;16404;49.902;10.074;2023-01-15T01:26:08;13.20;74.30
29431;DHT22;16404;49.902;10.074;2023-01-15T01:28:53;13.20;74.50
29431;DHT22;16404;49.902;10.074;2023-01-15T01:31:38;13.30;74.20
29431;DHT22;16404;49.902;10.074;2023-01-15T01:34:23;13.30;74.00
29431;DHT22;16404;49.902;10.074;2023-01-15T01:37:08;13.30;74.10
29431;DHT22;16404;49.902;10.074;2023-01-15T01:39:52;13.30;74.20
29431;DHT22;16404;49.902;10.074;2023-01-15T01:42:37;13.40;74.10
29431;DHT22;16404;49.902;10.074;2023-01-15T01:45:26;13.50;73.80
29431;DHT22;16404;49.902;10.074;2023-01-15T01:48:11;13.50;73.80
29431;DHT22;16404;49.902;10.074;2023-01-15T01:50:58;13.60;73.70
29431;DHT22;16404;49.902;10.074;2023-01-15T01:53:44;13.70;73.50
29431;DHT22;16404;49.902;10.074;2023-01-15T01:56:31;13.70;73.30
29431;DHT22;16404;49.902;10.074;2023-01-15T01:59:19;13.70;73.20
29431;DHT22;16404;49.902;10.074;2023-01-15T02:02:05;13.70;73.20
29431;DHT22;16404;49.902;10.074;2023-01-15T02:04:49;13.80;73.10
29431;DHT22;16404;49.902;10.074;2023-01-15T02:07:34;13.80;73.00
29431;DHT22;16404;49.902;10.074;2023-01-15T02:10:19;13.80;72.90
29431;DHT22;16404;49.902;10.074;2023-01-15T02:13:18;13.90;72.90
29431;DHT22;16404;49.902;10.074;2023-01-15T02:16:11;13.90;72.90
29431;DHT22;16404;49.902;10.074;2023-01-15T02:19:28;13.80;73.00
29431;DHT22;16404;49.902;10.074;2023-01-15T02:22:39;13.80;73.30
29431;DHT22;16404;49.902;10.074;2023-01-15T02:25:57;13.80;73.10
29431;DHT22;16404;49.902;10.074;2023-01-15T02:28:47;13.80;73.20
29431;DHT22;16404;49.902;10.074;2023-01-15T02:31:36;13.90;73.00
29431;DHT22;16404;49.902;10.074;2023-01-15T02:34:26;13.90;73.10
29431;DHT22;16404;49.902;10.074;2023-01-15T02:37:17;13.80;73.30
29431;DHT22;16404;49.902;10.074;2023-01-15T02:40:06;13.80;73.40
29431;DHT22;16404;49.902;10.074;2023-01-15T02:42:53;13.80;73.30
29431;DHT22;16404;49.902;10.074;2023-01-15T02:45:41;13.80;73.40
29431;DHT22;16404;49.902;10.074;2023-01-15T02:48:32;13.80;73.60
29431;DHT22;16404;49.902;10.074;2023-01-15T02:51:23;13.80;73.60
29431;DHT22;16404;49.902;10.074;2023-01-15T02:54:12;13.80;73.70
29431;DHT22;16404;49.902;10.074;2023-01-15T02:56:58;13.70;74.10
29431;DHT22;16404;49.902;10.074;2023-01-15T02:59:46;13.70;74.30
29431;DHT22;16404;49.902;10.074;2023-01-15T03:02:47;13.70;74.40
29431;DHT22;16404;49.902;10.074;2023-01-15T03:05:56;13.70;74.60
29431;DHT22;16404;49.902;10.074;2023-01-15T03:08:43;13.70;74.50
29431;DHT22;16404;49.902;10.074;2023-01-15T03:11:30;13.70;74.30
29431;DHT22;16404;49.902;10.074;2023-01-15T03:14:25;13.70;74.40
29431;DHT22;16404;49.902;10.074;2023-01-15T03:17:18;13.80;74.30
29431;DHT22;16404;49.902;10.074;2023-01-15T03:20:19;13.80;74.40
29431;DHT22;16404;49.902;10.074;2023-01-15T03:23:09;13.80;74.40
29431;DHT22;16404;49.902;10.074;2023-01-15T03:25:55;13.90;74.20
29431;DHT22;16404;49.902;10.074;2023-01-15T03:28:41;13.90;74.10
29431;DHT22;16404;49.902;10.074;2023-01-15T03:31:28;13.90;74.00
29431;DHT22;16404;49.902;10.074;2023-01-15T03:34:15;14.00;73.90
29431;DHT22;16404;49.902;10.074;2023-01-15T03:37:00;14.00;73.80
29431;DHT22;16404;49.902;10.074;2023-01-15T03:39:46;14.10;73.80
29431;DHT22;16404;49.902;10.074;2023-01-15T03:42:58;14.10;73.70
29431;DHT22;16404;49.902;10.074;2023-01-15T03:46:17;14.00;73.70
29431;DHT22;16404;49.902;10.074;2023-01-15T03:52:18;14.00;73.40
29431;DHT22;16404;49.902;10.074;2023-01-15T03:58:23;14.00;73.70
29431;DHT22;16404;49.902;10.074;2023-01-15T04:01:09;14.00;74.00
29431;DHT22;16404;49.902;10.074;2023-01-15T04:03:55;13.90;73.80
29431;DHT22;16404;49.902;10.074;2023-01-15T04:06:44;13.90;74.00
29431;DHT22;16404;49.902;10.074;2023-01-15T04:09:29;13.80;74.60
29431;DHT22;16404;49.902;10.074;2023-01-15T04:12:16;13.60;74.90
29431;DHT22;16404;49.902;10.074;2023-01-15T04:15:05;13.50;75.60
29431;DHT22;16404;49.902;10.074;2023-01-15T04:17:50;13.50;75.90
29431;DHT22;16404;49.902;10.074;2023-01-15T04:20:35;13.50;74.50
29431;DHT22;16404;49.902;10.074;2023-01-15T04:23:19;13.60;73.10
29431;DHT22;16404;49.902;10.074;2023-01-15T04:26:04;13.40;72.10
29431;DHT22;16404;49.902;10.074;2023-01-15T04:28:51;13.30;71.40
29431;DHT22;16404;49.902;10.074;2023-01-15T04:31:35;13.10;70.90
29431;DHT22;16404;49.902;10.074;2023-01-15T04:34:20;13.00;70.80
29431;DHT22;16404;49.902;10.074;2023-01-15T04:37:05;12.80;70.50
29431;DHT22;16404;49.902;10.074;2023-01-15T04:39:49;12.70;70.50
29431;DHT22;16404;49.902;10.074;2023-01-15T04:42:33;12.50;70.50
29431;DHT22;16404;49.902;10.074;2023-01-15T04:45:37;12.40;70.40
29431;DHT22;16404;49.902;10.074;2023-01-15T04:48:22;12.20;70.20
29431;DHT22;16404;49.902;10.074;2023-01-15T04:51:06;12.10;70.30
29431;DHT22;16404;49.902;10.074;2023-01-15T04:53:51;11.90;70.50
29431;DHT22;16404;49.902;10.074;2023-01-15T04:56:39;11.90;70.70
29431;DHT22;16404;49.902;10.074;2023-01-15T04:59:26;11.80;70.80
29431;DHT22;16404;49.902;10.074;2023-01-15T05:02:11;11.70;70.80
29431;DHT22;16404;49.902;10.074;2023-01-15T05:04:55;11.70;71.00
29431;DHT22;16404;49.902;10.074;2023-01-15T05:07:40;11.60;70.90
29431;DHT22;16404;49.902;10.074;2023-01-15T05:10:24;11.60;70.90
29431;DHT22;16404;49.902;10.074;2023-01-15T05:13:09;11.60;70.80
29431;DHT22;16404;49.902;10.074;2023-01-15T05:15:53;11.60;70.80
29431;DHT22;16404;49.902;10.074;2023-01-15T05:18:38;11.70;70.90
29431;DHT22;16404;49.902;10.074;2023-01-15T05:21:30;11.70;70.70
29431;DHT22;16404;49.902;10.074;2023-01-15T05:24:16;11.70;70.80
29431;DHT22;16404;49.902;10.074;2023-01-15T05:27:01;11.70;70.70
29431;DHT22;16404;49.902;10.074;2023-01-15T05:29:45;11.60;70.40
29431;DHT22;16404;49.902;10.074;2023-01-15T05:32:30;11.60;70.30
29431;DHT22;16404;49.902;10.074;2023-01-15T05:35:15;11.50;70.10
29431;DHT22;16404;49.902;10.074;2023-01-15T05:38:00;11.40;70.00
29431;DHT22;16404;49.902;10.074;2023-01-15T05:40:44;11.40;70.00
29431;DHT22;16404;49.902;10.074;2023-01-15T05:43:29;11.30;70.00
29431;DHT22;16404;49.902;10.074;2023-01-15T05:46:13;11.20;70.00
29431;DHT22;16404;49.902;10.074;2023-01-15T05:48:59;11.00;69.80
29431;DHT22;16404;49.902;10.074;2023-01-15T05:51:45;10.90;69.90
29431;DHT22;16404;49.902;10.074;2023-01-15T05:54:33;10.70;69.80
29431;DHT22;16404;49.902;10.074;2023-01-15T05:57:17;10.60;69.80
29431;DHT22;16404;49.902;10.074;2023-01-15T06:00:04;10.60;70.00
29431;DHT22;16404;49.902;10.074;2023-01-15T06:02:57;10.50;70.00
29431;DHT22;16404;49.902;10.074;2023-01-15T06:05:41;10.40;70.00
29431;DHT22;16404;49.902;10.074;2023-01-15T06:08:26;10.30;69.90
29431;DHT22;16404;49.902;10.074;2023-01-15T06:11:11;10.20;69.80
29431;DHT22;16404;49.902;10.074;2023-01-15T06:13:55;10.20;69.90
29431;DHT22;16404;49.902;10.074;2023-01-15T06:16:40;10.20;69.90
29431;DHT22;16404;49.902;10.074;2023-01-15T06:19:24;10.20;69.60
29431;DHT22;16404;49.902;10.074;2023-01-15T06:22:09;10.10;69.60
29431;DHT22;16404;49.902;10.074;2023-01-15T06:24:53;10.10;69.70
29431;DHT22;16404;49.902;10.074;2023-01-15T06:27:38;10.10;69.60
29431;DHT22;16404;49.902;10.074;2023-01-15T06:30:23;10.00;69.50
29431;DHT22;16404;49.902;10.074;2023-01-15T06:33:07;10.00;69.40
29431;DHT22;16404;49.902;10.074;2023-01-15T06:35:52;9.90;69.30
29431;DHT22;16404;49.902;10.074;2023-01-15T06:38:37;9.90;69.30
29431;DHT22;16404;49.902;10.074;2023-01-15T06:41:22;9.80;69.10
29431;DHT22;16404;49.902;10.074;2023-01-15T06:44:25;9.80;69.20
29431;DHT22;16404;49.902;10.074;2023-01-15T06:47:28;9.80;68.90
29431;DHT22;16404;49.902;10.074;2023-01-15T06:50:13;9.70;69.00
29431;DHT22;16404;49.902;10.074;2023-01-15T06:52:59;9.80;69.10
29431;DHT22;16404;49.902;10.074;2023-01-15T06:55:43;9.70;68.70
29431;DHT22;16404;49.902;10.074;2023-01-15T06:58:28;9.70;68.90
29431;DHT22;16404;49.902;10.074;2023-01-15T07:01:14;9.60;69.00
29431;DHT22;16404;49.902;10.074;2023-01-15T07:03:58;9.60;69.00
29431;DHT22;16404;49.902;10.074;2023-01-15T07:06:43;9.60;69.10
29431;DHT22;16404;49.902;10.074;2023-01-15T07:09:27;9.60;69.10
29431;DHT22;16404;49.902;10.074;2023-01-15T07:12:12;9.60;69.10
29431;DHT22;16404;49.902;10.074;2023-01-15T07:14:57;9.50;69.20
29431;DHT22;16404;49.902;10.074;2023-01-15T07:17:41;9.50;69.30
29431;DHT22;16404;49.902;10.074;2023-01-15T07:20:27;9.60;69.30
29431;DHT22;16404;49.902;10.074;2023-01-15T07:23:11;9.60;69.10
29431;DHT22;16404;49.902;10.074;2023-01-15T07:25:56;9.60;69.10
29431;DHT22;16404;49.902;10.074;2023-01-15T07:28:41;9.70;69.10
29431;DHT22;16404;49.902;10.074;2023-01-15T07:31:25;9.60;69.00
29431;DHT22;16404;49.902;10.074;2023-01-15T07:34:10;9.60;69.10
29431;DHT22;16404;49.902;10.074;2023-01-15T07:36:55;9.60;69.20
29431;DHT22;16404;49.902;10.074;2023-01-15T07:39:39;9.70;69.10
29431;DHT22;16404;49.902;10.074;2023-01-15T07:42:24;9.70;68.90
29431;DHT22;16404;49.902;10.074;2023-01-15T07:45:27;9.80;68.90
29431;DHT22;16404;49.902;10.074;2023-01-15T07:48:30;9.70;68.70
29431;DHT22;16404;49.902;10.074;2023-01-15T07:51:33;9.70;68.80
29431;DHT22;16404;49.902;10.074;2023-01-15T07:54:18;9.70;68.60
29431;DHT22;16404;49.902;10.074;2023-01-15T07:57:02;9.60;68.80
29431;DHT22;16404;49.902;10.074;2023-01-15T07:59:47;9.60;68.80
29431;DHT22;16404;49.902;10.074;2023-01-15T08:02:32;9.70;68.90
29431;DHT22;16404;49.902;10.074;2023-01-15T08:05:17;9.70;68.60
29431;DHT22;16404;49.902;10.074;2023-01-15T08:08:02;9.60;68.90
29431;DHT22;16404;49.902;10.074;2023-01-15T08:10:46;9.50;69.10
29431;DHT22;16404;49.902;10.074;2023-01-15T08:13:49;9.50;69.20
29431;DHT22;16404;49.902;10.074;2023-01-15T08:17:09;9.40;69.20
29431;DHT22;16404;49.902;10.074;2023-01-15T08:19:53;9.40;69.40
29431;DHT22;16404;49.902;10.074;2023-01-15T08:22:38;9.40;69.30
29431;DHT22;16404;49.902;10.074;2023-01-15T08:25:23;9.30;69.40
29431;DHT22;16404;49.902;10.074;2023-01-15T08:28:08;9.30;69.40
29431;DHT22;16404;49.902;10.074;2023-01-15T08:30:53;9.30;69.40
29431;DHT22;16404;49.902;10.074;2023-01-15T08:33:37;9.30;69.30
29431;DHT22;16404;49.902;10.074;2023-01-15T08:36:22;9.30;69.30
29431;DHT22;16404;49.902;10.074;2023-01-15T08:39:06;9.30;69.40
29431;DHT22;16404;49.902;10.074;2023-01-15T08:41:51;9.30;69.30
29431;DHT22;16404;49.902;10.074;2023-01-15T08:44:39;9.30;69.50
29431;DHT22;16404;49.902;10.074;2023-01-15T08:47:23;9.20;69.50
29431;DHT22;16404;49.902;10.074;2023-01-15T08:50:08;9.20;69.50
29431;DHT22;16404;49.902;10.074;2023-01-15T08:52:53;9.20;69.30
29431;DHT22;16404;49.902;10.074;2023-01-15T08:55:38;9.20;69.20
29431;DHT22;16404;49.902;10.074;2023-01-15T08:58:22;9.30;69.30
29431;DHT22;16404;49.902;10.074;2023-01-15T09:01:09;9.20;69.30
29431;DHT22;16404;49.902;10.074;2023-01-15T09:03:53;9.20;69.40
29431;DHT22;16404;49.902;10.074;2023-01-15T09:06:38;9.20;69.50
29431;DHT22;16404;49.902;10.074;2023-01-15T09:09:22;9.20;69.40
29431;DHT22;16404;49.902;10.074;2023-01-15T09:12:07;9.30;69.30
29431;DHT22;16404;49.902;10.074;2023-01-15T09:14:52;9.20;69.20
29431;DHT22;16404;49.902;10.074;2023-01-15T09:17:37;9.20;69.10
29431;DHT22;16404;49.902;10.074;2023-01-15T09:20:24;9.00;69.40
29431;DHT22;16404;49.902;10.074;2023-01-15T09:23:08;9.00;69.60
29431;DHT22;16404;49.902;10.074;2023-01-15T09:25:55;9.10;69.50
29431;DHT22;16404;49.902;10.074;2023-01-15T09:28:40;9.10;69.40
29431;DHT22;16404;49.902;10.074;2023-01-15T09:31:25;9.10;69.40
29431;DHT22;16404;49.902;10.074;2023-01-15T09:34:09;9.10;69.40
29431;DHT22;16404;49.902;10.074;2023-01-15T09:36:54;9.00;69.40
29431;DHT22;16404;49.902;10.074;2023-01-15T09:39:39;8.90;69.60
29431;DHT22;16404;49.902;10.074;2023-01-15T09:45:19;8.80;70.20
29431;DHT22;16404;49.902;10.074;2023-01-15T09:53:54;8.80;70.50
29431;DHT22;16404;49.902;10.074;2023-01-15T09:56:39;8.80;70.50
29431;DHT22;16404;49.902;10.074;2023-01-15T09:59:35;8.70;70.60
29431;DHT22;16404;49.902;10.074;2023-01-15T10:02:32;8.70;70.70
29431;DHT22;16404;49.902;10.074;2023-01-15T10:05:29;8.80;70.60
29431;DHT22;16404;49.902;10.074;2023-01-15T10:08:31;8.80;70.40
29431;DHT22;16404;49.902;10.074;2023-01-15T10:11:37;8.80;70.30
29431;DHT22;16404;49.902;10.074;2023-01-15T10:17:43;8.80;70.30
29431;DHT22;16404;49.902;10.074;2023-01-15T10:23:34;8.70;70.50
29431;DHT22;16404;49.902;10.074;2023-01-15T10:26:36;8.70;70.50
29431;DHT22;16404;49.902;10.074;2023-01-15T10:35:33;8.60;70.70
29431;DHT22;16404;49.902;10.074;2023-01-15T10:38:34;8.60;70.90
29431;DHT22;16404;49.902;10.074;2023-01-15T10:44:41;8.50;71.00
29431;DHT22;16404;49.902;10.074;2023-01-15T10:47:33;8.60;71.00
29431;DHT22;16404;49.902;10.074;2023-01-15T10:50:23;8.60;71.10
29431;DHT22;16404;49.902;10.074;2023-01-15T10:56:54;8.60;71.10
29431;DHT22;16404;49.902;10.074;2023-01-15T10:59:49;8.60;70.90
29431;DHT22;16404;49.902;10.074;2023-01-15T11:02:48;8.60;70.80
29431;DHT22;16404;49.902;10.074;2023-01-15T11:05:34;8.70;70.70
29431;DHT22;16404;49.902;10.074;2023-01-15T11:08:23;8.80;70.40
29431;DHT22;16404;49.902;10.074;2023-01-15T11:14:03;8.80;70.00
29431;DHT22;16404;49.902;10.074;2023-01-15T11:17:12;8.80;70.00
29431;DHT22;16404;49.902;10.074;2023-01-15T11:23:11;8.70;70.70
29431;DHT22;16404;49.902;10.074;2023-01-15T11:25:58;8.70;70.70
29431;DHT22;16404;49.902;10.074;2023-01-15T11:28:44;8.90;70.60
29431;DHT22;16404;49.902;10.074;2023-01-15T11:31:37;9.00;70.40
29431;DHT22;16404;49.902;10.074;2023-01-15T11:34:22;9.00;70.20
29431;DHT22;16404;49.902;10.074;2023-01-15T11:37:09;9.10;70.00
29431;DHT22;16404;49.902;10.074;2023-01-15T11:39:59;9.20;70.00
29431;DHT22;16404;49.902;10.074;2023-01-15T11:42:50;9.30;69.90
29431;DHT22;16404;49.902;10.074;2023-01-15T11:45:53;9.40;69.80
29431;DHT22;16404;49.902;10.074;2023-01-15T11:48:56;9.40;69.60
29431;DHT22;16404;49.902;10.074;2023-01-15T11:52:02;9.20;70.00
29431;DHT22;16404;49.902;10.074;2023-01-15T11:54:51;9.20;70.20
29431;DHT22;16404;49.902;10.074;2023-01-15T11:57:38;9.20;70.30
29431;DHT22;16404;49.902;10.074;2023-01-15T12:03:16;9.10;70.70
29431;DHT22;16404;49.902;10.074;2023-01-15T12:06:05;9.00;70.70
29431;DHT22;16404;49.902;10.074;2023-01-15T12:09:18;9.00;71.00
29431;DHT22;16404;49.902;10.074;2023-01-15T12:36:42;8.80;71.20
29431;DHT22;16404;49.902;10.074;2023-01-15T12:39:32;8.80;71.00
29431;DHT22;16404;49.902;10.074;2023-01-15T12:42:20;8.80;70.70
29431;DHT22;16404;49.902;10.074;2023-01-15T12:45:41;8.70;70.80
29431;DHT22;16404;49.902;10.074;2023-01-15T12:48:42;8.70;70.70
29431;DHT22;16404;49.902;10.074;2023-01-15T12:51:40;8.70;71.20
29431;DHT22;16404;49.902;10.074;2023-01-15T12:54:45;8.60;71.40
29431;DHT22;16404;49.902;10.074;2023-01-15T12:57:36;8.60;71.40
29431;DHT22;16404;49.902;10.074;2023-01-15T13:00:26;8.50;71.50
29431;DHT22;16404;49.902;10.074;2023-01-15T13:03:42;8.40;71.60
29431;DHT22;16404;49.902;10.074;2023-01-15T13:06:29;8.40;71.50
29431;DHT22;16404;49.902;10.074;2023-01-15T13:09:59;8.40;71.40
29431;DHT22;16404;49.902;10.074;2023-01-15T13:12:45;8.30;71.30
29431;DHT22;16404;49.902;10.074;2023-01-15T13:15:32;8.20;71.20
29431;DHT22;16404;49.902;10.074;2023-01-15T13:21:16;8.10;71.40
29431;DHT22;16404;49.902;10.074;2023-01-15T13:24:22;8.20;71.40
29431;DHT22;16404;49.902;10.074;2023-01-15T13:39:04;8.10;71.90
29431;DHT22;16404;49.902;10.074;2023-01-15T13:41:52;8.10;71.80
29431;DHT22;16404;49.902;10.074;2023-01-15T13:44:56;8.10;71.70
29431;DHT22;16404;49.902;10.074;2023-01-15T13:47:49;8.00;72.40
29431;DHT22;16404;49.902;10.074;2023-01-15T13:50:40;8.00;71.70
29431;DHT22;16404;49.902;10.074;2023-01-15T13:53:37;7.90;71.80
29431;DHT22;16404;49.902;10.074;2023-01-15T13:56:31;7.90;71.80
29431;DHT22;16404;49.902;10.074;2023-01-15T13:59:48;7.80;71.90
29431;DHT22;16404;49.902;10.074;2023-01-15T14:02:37;7.90;71.80
29431;DHT22;16404;49.902;10.074;2023-01-15T14:08:15;7.80;71.50
29431;DHT22;16404;49.902;10.074;2023-01-15T14:11:00;7.70;71.80
29431;DHT22;16404;49.902;10.074;2023-01-15T14:14:11;7.70;71.90
29431;DHT22;16404;49.902;10.074;2023-01-15T14:20:37;7.70;72.10
29431;DHT22;16404;49.902;10.074;2023-01-15T14:36:23;7.60;72.80
29431;DHT22;16404;49.902;10.074;2023-01-15T14:39:25;7.50;72.20
29431;DHT22;16404;49.902;10.074;2023-01-15T14:45:30;7.50;72.50
29431;DHT22;16404;49.902;10.074;2023-01-15T14:54:14;7.60;72.00
29431;DHT22;16404;49.902;10.074;2023-01-15T14:56:59;7.60;72.00
29431;DHT22;16404;49.902;10.074;2023-01-15T14:59:51;7.60;72.20
29431;DHT22;16404;49.902;10.074;2023-01-15T15:02:41;7.50;72.20
29431;DHT22;16404;49.902;10.074;2023-01-15T15:05:28;7.50;72.20
29431;DHT22;16404;49.902;10.074;2023-01-15T15:08:15;7.60;72.10
29431;DHT22;16404;49.902;10.074;2023-01-15T15:11:04;7.50;72.10
29431;DHT22;16404;49.902;10.074;2023-01-15T15:14:12;7.50;72.90
29431;DHT22;16404;49.902;10.074;2023-01-15T15:16:59;7.50;72.10
29431;DHT22;16404;49.902;10.074;2023-01-15T15:19:49;7.50;71.90
29431;DHT22;16404;49.902;10.074;2023-01-15T15:22:37;7.50;71.60
29431;DHT22;16404;49.902;10.074;2023-01-15T15:25:24;7.50;71.50
29431;DHT22;16404;49.902;10.074;2023-01-15T15:28:11;7.50;71.30
29431;DHT22;16404;49.902;10.074;2023-01-15T15:30:55;7.50;71.90
29431;DHT22;16404;49.902;10.074;2023-01-15T15:33:44;7.50;71.10
29431;DHT22;16404;49.902;10.074;2023-01-15T15:36:31;7.40;71.10
29431;DHT22;16404;49.902;10.074;2023-01-15T15:39:27;7.30;71.30
29431;DHT22;16404;49.902;10.074;2023-01-15T15:42:25;7.30;71.40
29431;DHT22;16404;49.902;10.074;2023-01-15T15:45:29;7.40;71.20
29431;DHT22;16404;49.902;10.074;2023-01-15T15:48:34;7.50;71.10
29431;DHT22;16404;49.902;10.074;2023-01-15T15:51:52;7.50;70.70
29431;DHT22;16404;49.902;10.074;2023-01-15T15:54:37;7.50;70.90
29431;DHT22;16404;49.902;10.074;2023-01-15T15:57:21;7.60;70.80
29431;DHT22;16404;49.902;10.074;2023-01-15T16:00:16;7.50;70.90
29431;DHT22;16404;49.902;10.074;2023-01-15T16:03:05;7.50;71.20
29431;DHT22;16404;49.902;10.074;2023-01-15T16:06:04;7.50;71.20
29431;DHT22;16404;49.902;10.074;2023-01-15T16:08:54;7.60;70.90
29431;DHT22;16404;49.902;10.074;2023-01-15T16:11:39;7.60;70.80
29431;DHT22;16404;49.902;10.074;2023-01-15T16:14:25;7.60;70.80
29431;DHT22;16404;49.902;10.074;2023-01-15T16:17:11;7.60;70.80
29431;DHT22;16404;49.902;10.074;2023-01-15T16:19:57;7.60;71.10
29431;DHT22;16404;49.902;10.074;2023-01-15T16:23:03;7.60;71.10
29431;DHT22;16404;49.902;10.074;2023-01-15T16:28:54;7.40;71.40
29431;DHT22;16404;49.902;10.074;2023-01-15T16:31:39;7.40;71.40
29431;DHT22;16404;49.902;10.074;2023-01-15T16:34:32;7.30;71.40
29431;DHT22;16404;49.902;10.074;2023-01-15T16:37:27;7.30;71.40
29431;DHT22;16404;49.902;10.074;2023-01-15T16:43:12;7.30;71.40
29431;DHT22;16404;49.902;10.074;2023-01-15T16:46:16;7.20;71.40
29431;DHT22;16404;49.902;10.074;2023-01-15T16:49:21;7.10;71.40
29431;DHT22;16404;49.902;10.074;2023-01-15T16:52:34;7.10;71.40
29431;DHT22;16404;49.902;10.074;2023-01-15T16:55:44;7.10;71.40
29431;DHT22;16404;49.902;10.074;2023-01-15T16:58:35;7.10;71.50
29431;DHT22;16404;49.902;10.074;2023-01-15T17:01:24;7.10;71.60
29431;DHT22;16404;49.902;10.074;2023-01-15T17:04:22;7.10;71.60
29431;DHT22;16404;49.902;10.074;2023-01-15T17:07:19;7.10;71.40
29431;DHT22;16404;49.902;10.074;2023-01-15T17:10:23;7.10;71.30
29431;DHT22;16404;49.902;10.074;2023-01-15T17:13:17;7.10;71.40
29431;DHT22;16404;49.902;10.074;2023-01-15T17:18:56;7.10;71.30
29431;DHT22;16404;49.902;10.074;2023-01-15T17:21:41;7.00;71.30
29431;DHT22;16404;49.902;10.074;2023-01-15T17:24:30;7.00;71.40
29431;DHT22;16404;49.902;10.074;2023-01-15T17:27:14;7.00;71.50
29431;DHT22;16404;49.902;10.074;2023-01-15T17:29:59;7.00;71.50
29431;DHT22;16404;49.902;10.074;2023-01-15T17:32:44;7.00;71.60
29431;DHT22;16404;49.902;10.074;2023-01-15T17:35:34;7.00;71.60
29431;DHT22;16404;49.902;10.074;2023-01-15T17:38:18;6.90;71.50
29431;DHT22;16404;49.902;10.074;2023-01-15T17:41:03;6.90;71.60
29431;DHT22;16404;49.902;10.074;2023-01-15T17:43:51;6.90;71.70
29431;DHT22;16404;49.902;10.074;2023-01-15T17:46:35;6.90;71.70
29431;DHT22;16404;49.902;10.074;2023-01-15T17:49:20;7.00;71.90
29431;DHT22;16404;49.902;10.074;2023-01-15T17:52:06;7.00;71.70
29431;DHT22;16404;49.902;10.074;2023-01-15T17:54:51;7.10;71.70
29431;DHT22;16404;49.902;10.074;2023-01-15T17:57:54;7.10;71.80
29431;DHT22;16404;49.902;10.074;2023-01-15T18:00:58;7.10;71.70
29431;DHT22;16404;49.902;10.074;2023-01-15T18:04:02;7.20;71.60
29431;DHT22;16404;49.902;10.074;2023-01-15T18:07:05;7.30;71.70
29431;DHT22;16404;49.902;10.074;2023-01-15T18:09:51;7.30;71.50
29431;DHT22;16404;49.902;10.074;2023-01-15T18:12:36;7.30;71.50
29431;DHT22;16404;49.902;10.074;2023-01-15T18:15:21;7.30;71.70
29431;DHT22;16404;49.902;10.074;2023-01-15T18:18:05;7.30;71.70
29431;DHT22;16404;49.902;10.074;2023-01-15T18:20:50;7.30;71.90
29431;DHT22;16404;49.902;10.074;2023-01-15T18:23:34;7.30;72.10
29431;DHT22;16404;49.902;10.074;2023-01-15T18:26:22;7.40;71.90
29431;DHT22;16404;49.902;10.074;2023-01-15T18:29:09;7.50;71.80
29431;DHT22;16404;49.902;10.074;2023-01-15T18:31:53;7.60;71.70
29431;DHT22;16404;49.902;10.074;2023-01-15T18:34:38;7.60;71.60
29431;DHT22;16404;49.902;10.074;2023-01-15T18:37:22;7.60;71.70
29431;DHT22;16404;49.902;10.074;2023-01-15T18:40:08;7.60;71.80
29431;DHT22;16404;49.902;10.074;2023-01-15T18:42:53;7.60;71.80
29431;DHT22;16404;49.902;10.074;2023-01-15T18:45:56;7.60;72.10
29431;DHT22;16404;49.902;10.074;2023-01-15T18:48:59;7.60;72.10
29431;DHT22;16404;49.902;10.074;2023-01-15T18:51:44;7.60;72.10
29431;DHT22;16404;49.902;10.074;2023-01-15T18:54:48;7.60;72.10
29431;DHT22;16404;49.902;10.074;2023-01-15T18:57:33;7.50;72.10
29431;DHT22;16404;49.902;10.074;2023-01-15T19:00:18;7.50;72.30
29431;DHT22;16404;49.902;10.074;2023-01-15T19:03:03;7.50;72.30
29431;DHT22;16404;49.902;10.074;2023-01-15T19:05:47;7.50;72.40
29431;DHT22;16404;49.902;10.074;2023-01-15T19:08:32;7.60;72.30
29431;DHT22;16404;49.902;10.074;2023-01-15T19:11:16;7.60;72.10
29431;DHT22;16404;49.902;10.074;2023-01-15T19:14:01;7.50;71.90
29431;DHT22;16404;49.902;10.074;2023-01-15T19:17:05;7.50;72.00
29431;DHT22;16404;49.902;10.074;2023-01-15T19:20:13;7.50;71.70
29431;DHT22;16404;49.902;10.074;2023-01-15T19:22:58;7.40;71.60
29431;DHT22;16404;49.902;10.074;2023-01-15T19:25:46;7.40;71.50
29431;DHT22;16404;49.902;10.074;2023-01-15T19:28:34;7.30;71.20
29431;DHT22;16404;49.902;10.074;2023-01-15T19:31:19;7.20;71.10
29431;DHT22;16404;49.902;10.074;2023-01-15T19:34:22;7.20;71.00
29431;DHT22;16404;49.902;10.074;2023-01-15T19:37:07;7.10;71.00
29431;DHT22;16404;49.902;10.074;2023-01-15T19:39:52;7.10;70.90
29431;DHT22;16404;49.902;10.074;2023-01-15T19:42:36;7.10;70.80
29431;DHT22;16404;49.902;10.074;2023-01-15T19:45:41;7.10;70.60